Time;durP1;ratioP1;P1;durP2;ratioP2;P2;SDS_P1;SDS_P2;PMS_P1;PMS_P2;Temp;Humidity;BMP_temperature;BMP_pressure;BME280_temperature;BME280_humidity;BME280_pressure;Samples;Min_cycle;Max_cycle;Signal;HPM_P1;HPM_P2
2022/04/26 03:36:19;;;;;;;13.23;7.45;;;;;;;10.85;100.00;99335.00;5093172;28;20103;-77
2022/04/26 03:38:48;;;;;;;11.80;7.25;;;;;;;10.87;100.00;99330.41;5092672;28;20505;-77
2022/04/26 03:41:14;;;;;;;10.05;6.95;;;;;;;10.86;100.00;99334.03;5074846;28;20032;-77
2022/04/26 03:43:40;;;;;;;7.90;7.07;;;;;;;10.89;100.00;99336.38;5092463;28;20028;-77
2022/04/26 03:46:07;;;;;;;7.97;7.13;;;;;;;10.88;100.00;99334.72;5092678;28;20380;-77
2022/04/26 03:48:32;;;;;;;9.95;7.82;;;;;;;10.91;100.00;99334.41;5091462;28;20036;-77
2022/04/26 03:50:59;;;;;;;8.20;6.88;;;;;;;10.95;100.00;99341.06;5092301;28;20035;-77
2022/04/26 03:53:24;;;;;;;8.50;6.60;;;;;;;10.99;100.00;99336.31;5092866;28;20050;-78
2022/04/26 03:55:50;;;;;;;11.07;6.78;;;;;;;10.99;100.00;99339.78;5092586;28;20032;-77
2022/04/26 03:58:15;;;;;;;12.68;6.82;;;;;;;11.02;100.00;99341.25;5092454;28;20096;-78
2022/04/26 04:00:41;;;;;;;10.52;6.88;;;;;;;11.06;100.00;99343.47;5092202;28;20089;-78
2022/04/26 04:03:06;;;;;;;9.93;6.25;;;;;;;11.09;100.00;99343.16;5092428;28;20024;-78
2022/04/26 04:05:33;;;;;;;7.53;6.80;;;;;;;11.14;100.00;99349.78;5092816;28;20032;-78
2022/04/26 04:07:58;;;;;;;9.80;6.80;;;;;;;11.11;100.00;99347.47;5090371;28;20028;-78
2022/04/26 04:10:24;;;;;;;8.02;6.75;;;;;;;11.06;100.00;99354.03;5092671;28;20043;-77
2022/04/26 04:12:49;;;;;;;8.48;5.90;;;;;;;11.03;100.00;99351.69;5092144;28;20036;-77
2022/04/26 04:15:16;;;;;;;9.77;7.05;;;;;;;11.03;100.00;99359.59;5092224;28;20036;-77
2022/04/26 04:17:41;;;;;;;8.15;6.95;;;;;;;10.99;100.00;99370.63;5091648;28;20101;-77
2022/04/26 04:20:08;;;;;;;9.63;6.65;;;;;;;10.97;100.00;99364.66;5092424;28;20472;-78
2022/04/26 04:22:33;;;;;;;7.97;6.45;;;;;;;10.94;100.00;99376.34;5091864;28;20054;-79
2022/04/26 04:24:59;;;;;;;8.70;6.50;;;;;;;10.94;100.00;99381.63;5092351;28;20464;-78
2022/04/26 04:27:24;;;;;;;9.65;6.95;;;;;;;10.97;100.00;99386.59;5092335;28;20051;-78
2022/04/26 04:29:51;;;;;;;6.88;5.90;;;;;;;10.92;100.00;99383.59;5091710;28;20036;-77
2022/04/26 04:32:17;;;;;;;7.55;6.68;;;;;;;10.86;100.00;99383.34;5091905;28;20063;-76
2022/04/26 04:34:43;;;;;;;10.18;6.95;;;;;;;10.87;100.00;99380.56;5091538;28;20064;-76
2022/04/26 04:37:09;;;;;;;9.32;6.63;;;;;;;10.92;100.00;99383.59;5091586;28;20051;-76
2022/04/26 04:39:35;;;;;;;8.93;6.85;;;;;;;10.93;100.00;99377.34;5091382;28;20047;-78
2022/04/26 04:42:02;;;;;;;8.32;7.00;;;;;;;10.98;100.00;99377.72;5090451;28;20032;-77
2022/04/26 04:44:29;;;;;;;7.72;6.40;;;;;;;11.03;100.00;99386.00;5087810;28;20499;-77
2022/04/26 04:47:00;;;;;;;10.65;7.05;;;;;;;11.08;100.00;99383.75;5089585;28;20032;-77
2022/04/26 04:49:25;;;;;;;8.85;6.07;;;;;;;11.11;100.00;99387.06;5091657;28;20123;-77
2022/04/26 04:51:52;;;;;;;8.10;6.85;;;;;;;11.14;100.00;99386.75;5091078;28;20028;-77
2022/04/26 04:54:17;;;;;;;9.18;6.88;;;;;;;11.18;100.00;99388.13;5091684;28;20495;-77
2022/04/26 04:56:43;;;;;;;9.73;6.90;;;;;;;11.19;100.00;99393.25;5089848;28;20729;-77
2022/04/26 04:59:08;;;;;;;9.77;6.43;;;;;;;11.19;100.00;99400.38;5091508;28;20036;-77
2022/04/26 05:01:35;;;;;;;13.18;6.35;;;;;;;11.22;100.00;99395.59;5090830;28;20036;-74
2022/04/26 05:04:00;;;;;;;9.27;7.07;;;;;;;11.20;100.00;99399.38;5090445;28;20051;-75
2022/04/26 05:06:26;;;;;;;11.07;6.85;;;;;;;11.28;100.00;99399.44;5090836;28;20469;-75
2022/04/26 05:08:51;;;;;;;9.95;6.20;;;;;;;11.28;100.00;99399.44;5090801;28;20068;-74
2022/04/26 05:11:17;;;;;;;9.52;7.05;;;;;;;11.28;100.00;99402.09;5091128;28;20058;-74
2022/04/26 05:13:43;;;;;;;8.45;6.70;;;;;;;11.30;100.00;99397.50;5090459;28;20040;-74
2022/04/26 05:16:08;;;;;;;7.05;5.90;;;;;;;11.25;100.00;99400.56;4383783;27;10000734;-75
2022/04/26 05:18:34;;;;;;;10.38;7.10;;;;;;;11.36;100.00;99402.19;5087636;28;20044;-73
2022/04/26 05:20:59;;;;;;;8.75;6.47;;;;;;;11.47;100.00;99401.94;5087730;28;20388;-74
2022/04/26 05:26:10;;;;;;;11.05;6.80;;;;;;;11.55;100.00;99409.09;5085549;28;20067;-74
2022/04/26 05:28:35;;;;;;;9.55;7.22;;;;;;;11.61;100.00;99411.97;5086454;28;20070;-73
2022/04/26 05:31:00;;;;;;;10.45;7.00;;;;;;;11.70;100.00;99408.41;5087316;28;20064;-73
2022/04/26 05:33:27;;;;;;;9.70;7.35;;;;;;;11.80;100.00;99411.81;5086117;28;20056;-74
2022/04/26 05:35:53;;;;;;;14.20;6.47;;;;;;;11.93;100.00;99418.53;5087315;28;20575;-74
2022/04/26 05:38:19;;;;;;;10.98;6.53;;;;;;;11.97;100.00;99411.94;5086867;28;20036;-74
2022/04/26 05:40:44;;;;;;;9.98;7.10;;;;;;;12.04;100.00;99412.97;5087598;28;20035;-74
2022/04/26 05:43:10;;;;;;;9.50;7.00;;;;;;;12.10;100.00;99421.13;5087566;28;20028;-73
2022/04/26 05:45:36;;;;;;;13.93;6.43;;;;;;;12.21;100.00;99425.31;4381093;27;10000850;-74
2022/04/26 05:48:01;;;;;;;11.07;6.88;;;;;;;12.28;100.00;99421.06;5090342;28;20063;-73
2022/04/26 05:50:27;;;;;;;13.43;6.72;;;;;;;12.31;100.00;99421.56;5089552;28;20469;-73
2022/04/26 05:52:52;;;;;;;8.40;7.25;;;;;;;12.39;100.00;99419.97;5089493;28;20394;-73
2022/04/26 05:55:18;;;;;;;13.93;7.43;;;;;;;12.47;100.00;99423.50;5088795;28;20020;-73
2022/04/26 05:57:44;;;;;;;12.68;6.80;;;;;;;12.62;100.00;99419.25;5089004;28;20036;-73
2022/04/26 06:00:12;;;;;;;10.18;6.90;;;;;;;12.71;100.00;99420.94;5088759;28;20038;-73
2022/04/26 06:02:38;;;;;;;18.02;6.78;;;;;;;12.71;100.00;99423.59;5089733;28;20048;-73
2022/04/26 06:05:04;;;;;;;11.68;7.28;;;;;;;12.79;100.00;99419.31;5089616;28;20512;-73
2022/04/26 06:07:30;;;;;;;7.60;6.80;;;;;;;12.90;100.00;99419.03;5085357;28;20032;-73
2022/04/26 06:09:56;;;;;;;13.70;7.03;;;;;;;12.97;100.00;99423.50;5089399;28;20024;-73
2022/04/26 06:12:26;;;;;;;9.90;6.82;;;;;;;12.95;100.00;99424.69;5088556;28;20391;-72
2022/04/26 06:14:55;;;;;;;10.55;7.40;;;;;;;12.99;100.00;99421.53;5089399;28;20040;-72
2022/04/26 06:17:21;;;;;;;12.35;6.93;;;;;;;13.03;100.00;99422.03;5089838;28;20318;-73
2022/04/26 06:19:47;;;;;;;13.20;7.38;;;;;;;13.04;100.00;99423.69;5089115;28;20112;-73
2022/04/26 06:22:12;;;;;;;11.18;6.80;;;;;;;13.04;100.00;99418.41;5089086;28;20035;-73
2022/04/26 06:24:38;;;;;;;10.23;7.13;;;;;;;12.94;100.00;99417.72;5089236;28;20421;-73
2022/04/26 06:27:03;;;;;;;9.52;7.03;;;;;;;12.83;100.00;99423.31;5089748;28;20047;-73
2022/04/26 06:29:29;;;;;;;8.95;7.18;;;;;;;12.69;100.00;99430.88;5089758;28;20035;-73
2022/04/26 06:31:55;;;;;;;10.30;6.80;;;;;;;12.77;100.00;99427.44;5089320;28;20039;-73
2022/04/26 06:34:20;;;;;;;9.63;6.93;;;;;;;12.78;100.00;99417.66;5089905;28;20560;-73
2022/04/26 06:36:46;;;;;;;9.60;7.20;;;;;;;12.84;100.00;99419.69;5088728;28;20071;-73
2022/04/26 06:39:12;;;;;;;8.20;6.78;;;;;;;12.87;100.00;99416.69;5089388;28;20043;-73
2022/04/26 06:41:37;;;;;;;11.70;7.38;;;;;;;12.93;100.00;99414.22;5089168;28;20036;-73
2022/04/26 06:44:03;;;;;;;12.57;7.75;;;;;;;13.07;100.00;99407.50;5089596;28;20483;-74
2022/04/26 06:46:29;;;;;;;10.05;7.28;;;;;;;13.18;100.00;99414.34;5089908;28;20032;-73
2022/04/26 06:48:58;;;;;;;10.27;7.50;;;;;;;13.20;100.00;99414.97;5089141;28;20121;-74
2022/04/26 06:51:24;;;;;;;9.27;7.47;;;;;;;13.36;100.00;99418.50;5089354;28;20340;-74
2022/04/26 06:53:51;;;;;;;9.55;6.95;;;;;;;13.37;100.00;99409.53;5088439;28;20133;-73
2022/04/26 06:56:17;;;;;;;8.98;7.55;;;;;;;13.42;100.00;99417.84;5089269;28;20064;-73
2022/04/26 06:58:43;;;;;;;9.98;7.95;;;;;;;13.44;100.00;99415.84;5089031;28;20391;-73
2022/04/26 07:01:08;;;;;;;14.07;7.57;;;;;;;13.50;100.00;99412.53;5089436;28;20028;-73
2022/04/26 07:03:34;;;;;;;20.08;9.75;;;;;;;13.56;100.00;99413.69;5088070;28;20032;-73
2022/04/26 07:05:59;;;;;;;13.00;8.45;;;;;;;13.62;100.00;99412.22;5085228;28;20055;-73
2022/04/26 07:08:25;;;;;;;15.80;7.93;;;;;;;13.59;100.00;99412.56;5088584;28;20356;-73
2022/04/26 07:10:50;;;;;;;12.93;6.95;;;;;;;13.60;100.00;99420.34;5088790;28;20035;-73
2022/04/26 07:13:18;;;;;;;14.90;6.82;;;;;;;13.60;100.00;99415.06;5089327;28;20111;-73
2022/04/26 07:15:44;;;;;;;10.90;8.02;;;;;;;13.64;100.00;99410.22;5088920;28;20044;-73
2022/04/26 07:18:12;;;;;;;17.70;9.88;;;;;;;13.70;100.00;99414.88;5088943;28;20059;-73
2022/04/26 07:20:38;;;;;;;19.00;8.00;;;;;;;13.77;100.00;99415.88;5089103;28;20036;-73
2022/04/26 07:23:04;;;;;;;10.25;7.95;;;;;;;13.86;100.00;99425.47;5088642;28;20043;-73
2022/04/26 07:25:30;;;;;;;12.40;7.20;;;;;;;13.90;100.00;99421.50;5085560;28;20040;-72
2022/04/26 07:27:55;;;;;;;10.82;7.10;;;;;;;13.72;100.00;99423.50;5092374;28;20024;-74
2022/04/26 07:30:20;;;;;;;12.32;7.35;;;;;;;13.69;100.00;99418.50;5092776;28;20024;-72
2022/04/26 07:35:30;;;;;;;10.68;8.13;;;;;;;13.95;100.00;99435.09;5088693;28;20030;-74
2022/04/26 07:38:04;;;;;;;13.82;7.75;;;;;;;14.14;100.00;99432.06;5091642;28;20028;-72
2022/04/26 07:40:31;;;;;;;11.65;8.05;;;;;;;14.30;100.00;99428.56;5088364;28;20040;-73
2022/04/26 07:42:57;;;;;;;14.10;7.57;;;;;;;14.41;100.00;99430.91;5092224;28;20040;-73
2022/04/26 07:45:23;;;;;;;10.80;7.80;;;;;;;14.55;100.00;99432.03;5091258;28;20107;-74
2022/04/26 07:47:48;;;;;;;12.27;7.63;;;;;;;14.76;100.00;99429.59;5091999;28;20040;-73
2022/04/26 07:50:14;;;;;;;12.82;7.32;;;;;;;14.91;100.00;99421.72;5092756;28;20028;-74
2022/04/26 07:52:39;;;;;;;18.70;8.50;;;;;;;14.94;100.00;99419.56;5090702;28;20430;-74
2022/04/26 07:55:05;;;;;;;11.75;9.25;;;;;;;14.95;100.00;99417.75;5091641;28;20421;-72
2022/04/26 07:57:31;;;;;;;9.95;8.95;;;;;;;14.91;100.00;99419.06;5090909;28;20036;-75
2022/04/26 07:59:58;;;;;;;9.15;7.80;;;;;;;15.05;100.00;99424.47;5090845;28;20048;-74
2022/04/26 08:02:24;;;;;;;10.52;8.25;;;;;;;15.16;100.00;99420.59;5091116;28;20058;-73
2022/04/26 08:04:50;;;;;;;11.25;9.18;;;;;;;15.27;100.00;99422.03;5090864;28;20036;-74
2022/04/26 08:07:16;;;;;;;11.93;9.63;;;;;;;15.27;100.00;99419.38;5090661;28;20580;-74
2022/04/26 08:09:43;;;;;;;10.05;9.00;;;;;;;15.22;100.00;99424.38;5090400;28;20071;-73
2022/04/26 08:12:08;;;;;;;10.27;9.10;;;;;;;15.29;100.00;99430.66;5089424;28;20099;-74
2022/04/26 08:14:34;;;;;;;14.05;9.15;;;;;;;15.33;100.00;99429.28;5090473;28;21639;-74
2022/04/26 08:17:00;;;;;;;11.30;8.48;;;;;;;15.38;100.00;99424.28;5088065;28;20043;-73
2022/04/26 08:19:25;;;;;;;9.65;8.57;;;;;;;15.49;100.00;99434.53;5090500;28;20044;-75
2022/04/26 08:21:51;;;;;;;10.00;9.00;;;;;;;15.66;100.00;99432.59;5090380;28;20032;-73
2022/04/26 08:29:46;;;;;;;12.27;9.05;;;;;;;15.97;100.00;99436.81;5091043;28;20032;-75
2022/04/26 08:32:13;;;;;;;14.05;9.32;;;;;;;15.93;100.00;99443.50;5090845;28;20119;-74
2022/04/26 08:34:39;;;;;;;10.07;8.63;;;;;;;15.96;100.00;99443.13;5090936;28;20038;-74
2022/04/26 08:37:05;;;;;;;8.93;7.78;;;;;;;16.14;100.00;99442.00;5089843;28;20032;-73
2022/04/26 08:39:31;;;;;;;12.95;8.63;;;;;;;16.32;100.00;99434.47;5090592;28;20115;-75
2022/04/26 08:42:00;;;;;;;9.48;7.53;;;;;;;16.56;100.00;99436.88;5091177;28;20460;-73
2022/04/26 08:44:27;;;;;;;13.10;7.40;;;;;;;16.88;99.15;99440.19;5089981;28;20081;-74
2022/04/26 08:52:28;;;;;;;9.85;6.70;;;;;;;17.47;93.44;99448.91;5088931;28;20036;-73
2022/04/26 08:54:53;;;;;;;9.30;6.60;;;;;;;17.56;92.76;99445.91;5088752;28;20042;-75
2022/04/26 08:57:19;;;;;;;5.85;5.03;;;;;;;17.55;90.46;99449.56;5089813;28;20031;-74
2022/04/26 08:59:51;;;;;;;7.57;3.92;;;;;;;17.42;87.23;99448.63;5089408;28;20039;-73
2022/04/26 09:02:18;;;;;;;3.95;2.97;;;;;;;17.40;85.96;99445.31;5090125;28;20035;-73
2022/04/26 09:04:49;;;;;;;7.10;4.10;;;;;;;17.35;86.55;99453.91;5088707;28;20032;-74
2022/04/26 09:07:36;;;;;;;6.47;5.30;;;;;;;17.29;88.88;99443.97;5089620;28;20712;-74
2022/04/26 09:10:15;;;;;;;9.07;4.70;;;;;;;17.31;88.74;99444.63;5087510;28;20040;-74
2022/04/26 09:13:05;;;;;;;9.45;4.57;;;;;;;17.40;88.81;99454.16;5086397;28;20034;-74
2022/04/26 09:15:42;;;;;;;8.43;6.40;;;;;;;17.35;90.36;99443.22;5087922;28;20042;-74
2022/04/26 09:18:15;;;;;;;9.93;5.90;;;;;;;17.38;91.57;99445.50;5088155;28;20032;-74
2022/04/26 09:20:42;;;;;;;7.43;6.55;;;;;;;17.49;91.45;99445.03;5089544;28;20028;-74
2022/04/26 09:23:19;;;;;;;9.68;6.32;;;;;;;17.58;90.66;99443.88;5089912;28;20031;-74
2022/04/26 09:25:46;;;;;;;6.25;4.47;;;;;;;17.57;87.74;99447.56;5085959;28;20044;-73
2022/04/26 09:28:23;;;;;;;5.63;3.95;;;;;;;17.71;87.22;99447.72;5089471;28;20078;-73
2022/04/26 09:30:49;;;;;;;8.27;5.72;;;;;;;17.65;88.59;99445.81;5087756;28;20028;-73
2022/04/26 09:33:36;;;;;;;6.88;4.88;;;;;;;17.87;88.23;99450.13;5089769;28;20027;-73
2022/04/26 09:36:09;;;;;;;8.25;4.95;;;;;;;18.05;85.37;99450.50;5090544;28;20089;-74
2022/04/26 09:38:37;;;;;;;8.82;4.22;;;;;;;18.20;84.35;99443.19;5086387;28;20038;-74
2022/04/26 09:41:04;;;;;;;10.77;4.50;;;;;;;18.36;83.97;99442.09;5089227;28;20034;-73
2022/04/26 09:43:31;;;;;;;6.88;4.03;;;;;;;18.52;83.37;99446.28;5088598;28;20376;-74
2022/04/26 09:45:58;;;;;;;9.05;4.13;;;;;;;18.62;82.60;99446.78;5088819;28;20031;-74
2022/04/26 09:48:28;;;;;;;7.05;4.60;;;;;;;18.63;81.81;99448.44;5088894;28;20036;-72
2022/04/26 09:50:56;;;;;;;8.95;4.93;;;;;;;18.66;82.24;99442.72;5089006;28;20081;-72
2022/04/26 09:53:21;;;;;;;5.25;4.07;;;;;;;18.80;81.74;99441.75;5087826;28;20063;-74
2022/04/26 09:55:48;;;;;;;6.43;4.35;;;;;;;18.88;81.59;99452.28;5089462;28;20058;-74
2022/04/26 09:58:19;;;;;;;7.95;4.63;;;;;;;18.88;80.74;99446.94;5089827;28;20081;-74
2022/04/26 10:00:49;;;;;;;5.00;4.35;;;;;;;19.01;80.73;99441.66;5089625;28;20475;-74
2022/04/26 10:03:24;;;;;;;8.55;5.15;;;;;;;19.08;81.30;99442.53;5090194;28;20032;-74
2022/04/26 10:05:58;;;;;;;8.82;4.63;;;;;;;18.99;80.90;99441.03;5089489;28;20724;-71
2022/04/26 10:08:25;;;;;;;9.93;4.47;;;;;;;19.04;81.08;99441.25;5084987;28;20052;-75
2022/04/26 10:10:50;;;;;;;8.75;4.75;;;;;;;19.05;81.46;99442.06;5088798;28;20028;-72
2022/04/26 10:13:35;;;;;;;8.25;5.00;;;;;;;19.00;81.86;99440.00;5088774;28;20036;-75
2022/04/26 10:16:04;;;;;;;7.90;5.68;;;;;;;18.99;81.84;99433.00;4733449;28;10000944;-74
2022/04/26 10:18:43;;;;;;;8.85;4.88;;;;;;;19.03;82.34;99439.59;5085967;28;20051;-73
2022/04/26 10:21:10;;;;;;;9.03;4.40;;;;;;;18.95;81.18;99430.94;5086155;28;20035;-75
2022/04/26 10:23:51;;;;;;;9.67;3.60;;;;;;;18.78;83.96;99427.78;4379053;27;10021482;-74
2022/04/26 10:26:26;;;;;;;9.88;4.65;;;;;;;18.79;84.20;99432.09;5081983;28;20036;-73
2022/04/26 10:29:01;;;;;;;7.90;4.63;;;;;;;18.81;84.15;99430.03;5087497;28;20043;-74
2022/04/26 10:31:48;;;;;;;11.55;4.88;;;;;;;18.87;82.85;99431.91;5089000;28;20040;-73
2022/04/26 10:34:31;;;;;;;9.35;4.07;;;;;;;18.88;81.90;99430.91;5088945;28;20032;-74
2022/04/26 10:37:05;;;;;;;6.25;4.00;;;;;;;19.02;80.94;99432.63;5090086;28;20091;-74
2022/04/26 10:39:42;;;;;;;5.13;4.05;;;;;;;19.27;80.65;99429.38;5090002;28;20085;-74
2022/04/26 10:42:17;;;;;;;6.22;4.22;;;;;;;19.27;80.37;99429.38;5086788;28;20032;-74
2022/04/26 10:44:44;;;;;;;7.88;4.10;;;;;;;19.25;81.00;99431.44;5090662;28;20035;-73
2022/04/26 10:47:10;;;;;;;7.82;3.78;;;;;;;19.14;81.88;99430.19;5090951;28;20437;-73
2022/04/26 10:49:35;;;;;;;5.43;4.03;;;;;;;19.05;82.74;99432.19;5090469;28;20048;-74
2022/04/26 10:52:25;;;;;;;8.60;4.20;;;;;;;18.91;83.10;99421.66;5093074;28;20028;-74
2022/04/26 10:55:01;;;;;;;6.20;4.70;;;;;;;18.91;84.10;99419.78;5089799;28;20036;-74
2022/04/26 10:57:36;;;;;;;6.20;4.00;;;;;;;18.97;82.38;99420.84;5089609;28;20094;-74
2022/04/26 11:00:03;;;;;;;9.55;4.43;;;;;;;19.08;81.49;99418.44;5089714;28;20044;-72
2022/04/26 11:02:32;;;;;;;5.85;3.72;;;;;;;19.13;81.10;99417.84;5093112;28;20024;-72
2022/04/26 11:05:00;;;;;;;8.88;3.42;;;;;;;19.21;81.94;99425.66;5093089;28;20032;-76
2022/04/26 11:07:27;;;;;;;8.88;4.13;;;;;;;19.25;82.00;99410.06;5093148;28;20154;-73
2022/04/26 11:09:57;;;;;;;6.15;3.63;;;;;;;19.25;81.59;99415.41;5092556;28;20044;-74
2022/04/26 11:12:25;;;;;;;7.85;3.53;;;;;;;19.25;82.74;99415.41;5093464;28;20036;-74
2022/04/26 11:14:53;;;;;;;5.63;3.00;;;;;;;19.26;81.42;99417.06;5092648;28;20032;-73
2022/04/26 11:17:20;;;;;;;7.70;3.85;;;;;;;19.18;81.53;99405.50;5093120;28;20039;-76
2022/04/26 11:19:54;;;;;;;7.82;3.47;;;;;;;19.05;80.63;99409.97;5090714;28;20085;-73
2022/04/26 11:22:20;;;;;;;6.63;3.67;;;;;;;18.93;81.33;99407.06;5091983;28;20028;-74
2022/04/26 11:30:48;;;;;;;5.18;2.83;;;;;;;18.90;83.36;99402.13;5092145;28;20043;-75
2022/04/26 11:33:15;;;;;;;9.80;3.67;;;;;;;19.01;81.67;99404.22;5090181;28;20115;-75
2022/04/26 11:35:42;;;;;;;6.38;3.13;;;;;;;19.10;80.80;99404.84;5090871;28;20062;-74
2022/04/26 11:38:14;;;;;;;6.35;3.40;;;;;;;19.19;78.31;99403.66;5092949;28;20032;-75
2022/04/26 11:40:46;;;;;;;6.35;3.25;;;;;;;19.18;78.20;99389.47;5092526;28;20085;-76
2022/04/26 11:43:16;;;;;;;4.47;2.90;;;;;;;19.33;78.48;99391.13;5092964;28;20032;-75
2022/04/26 11:45:46;;;;;;;7.20;3.10;;;;;;;19.43;78.03;99391.56;5092636;28;20043;-74
2022/04/26 11:48:13;;;;;;;5.53;3.10;;;;;;;19.44;77.66;99380.63;5093051;28;20084;-74
2022/04/26 11:50:40;;;;;;;6.00;2.75;;;;;;;19.55;78.07;99373.91;5092101;28;20435;-75
2022/04/26 11:53:11;;;;;;;5.07;2.60;;;;;;;19.62;77.38;99374.72;5092837;28;20071;-74
2022/04/26 11:55:38;;;;;;;;;;;;;;;19.71;76.40;99378.03;5089299;28;20043;-74
2022/04/26 11:58:08;;;;;;;5.03;2.90;;;;;;;19.79;76.91;99372.47;5092589;28;19916;-74
2022/04/26 12:00:34;;;;;;;5.73;2.60;;;;;;;20.03;75.36;99380.69;5088402;28;20032;-75
2022/04/26 12:03:02;;;;;;;7.55;3.47;;;;;;;20.32;74.58;99374.06;5092229;28;20484;-75
2022/04/26 12:05:28;;;;;;;7.22;4.15;;;;;;;20.55;73.45;99376.31;5091688;28;20032;-74
2022/04/26 12:07:55;;;;;;;4.68;3.17;;;;;;;20.61;72.36;99364.72;5091711;28;20086;-74
2022/04/26 12:10:29;;;;;;;4.80;2.45;;;;;;;20.92;71.14;99365.81;5092175;28;20397;-76
2022/04/26 12:13:01;;;;;;;4.95;2.25;;;;;;;21.71;68.34;99359.97;5091340;28;20038;-75
2022/04/26 12:15:33;;;;;;;2.97;2.58;;;;;;;22.53;64.43;99358.78;5092559;28;20040;-75
2022/04/26 12:18:15;;;;;;;3.28;2.42;;;;;;;23.27;60.87;99361.94;5090536;28;20048;-76
2022/04/26 12:21:03;;;;;;;3.95;2.63;;;;;;;23.85;57.99;99353.22;5088152;28;20032;-75
2022/04/26 12:23:30;;;;;;;4.53;2.65;;;;;;;24.02;56.90;99348.78;5091017;28;20036;-75
2022/04/26 12:26:05;;;;;;;4.97;2.33;;;;;;;23.59;57.40;99348.25;5091333;28;20036;-75
2022/04/26 12:28:31;;;;;;;4.55;2.22;;;;;;;23.16;59.71;99353.84;5091694;28;20036;-74
2022/04/26 12:30:57;;;;;;;4.22;2.20;;;;;;;23.21;59.21;99345.91;5091784;28;20393;-77
2022/04/26 12:33:30;;;;;;;6.43;2.33;;;;;;;22.64;60.09;99348.09;5091662;28;20448;-75
2022/04/26 12:36:00;;;;;;;3.10;2.05;;;;;;;22.19;62.03;99344.88;5090785;28;20043;-74
2022/04/26 12:38:26;;;;;;;4.88;2.25;;;;;;;21.82;64.20;99351.19;5088298;28;20085;-75
2022/04/26 12:41:05;;;;;;;3.47;2.10;;;;;;;21.45;64.78;99351.06;5088805;28;20083;-75
2022/04/26 12:43:33;;;;;;;2.58;1.90;;;;;;;21.22;65.97;99351.66;5086081;28;20446;-74
2022/04/26 12:46:01;;;;;;;5.65;1.92;;;;;;;21.07;64.53;99352.97;5091308;28;20042;-75
2022/04/26 12:51:20;;;;;;;2.42;1.67;;;;;;;21.87;62.87;99337.94;5088495;28;20036;-74
2022/04/26 12:53:48;;;;;;;2.92;1.70;;;;;;;22.91;57.84;99332.47;5088605;28;20028;-75
2022/04/26 12:56:14;;;;;;;4.43;1.98;;;;;;;22.67;57.09;99338.75;5091291;28;20020;-75
2022/04/26 12:58:43;;;;;;;3.22;1.33;;;;;;;22.26;56.60;99334.88;5090931;28;20036;-75
2022/04/26 13:01:09;;;;;;;1.92;1.52;;;;;;;21.81;57.86;99333.44;5091294;28;20024;-74
2022/04/26 13:03:35;;;;;;;2.40;1.67;;;;;;;21.47;59.27;99322.16;5091235;28;20059;-75
2022/04/26 13:06:15;;;;;;;2.15;1.42;;;;;;;21.13;60.56;99317.22;5091050;28;20047;-74
2022/04/26 13:08:45;;;;;;;1.63;1.52;;;;;;;21.07;62.32;99316.22;5087412;28;20040;-75
2022/04/26 13:11:11;;;;;;;1.45;1.30;;;;;;;21.38;63.37;99311.91;5091131;28;20024;-74
2022/04/26 13:13:40;;;;;;;1.45;1.00;;;;;;;23.13;57.14;99306.69;5090894;28;20503;-75
2022/04/26 13:16:06;;;;;;;1.30;1.10;;;;;;;22.91;57.38;99297.50;5087148;28;20468;-75
2022/04/26 13:18:32;;;;;;;2.13;1.13;;;;;;;22.66;56.01;99299.44;5085524;28;20046;-74
2022/04/26 13:20:58;;;;;;;1.45;1.30;;;;;;;24.26;52.32;99302.94;5090458;28;20043;-75
2022/04/26 13:23:25;;;;;;;2.20;1.27;;;;;;;26.31;47.15;99289.81;5086942;28;20423;-76
2022/04/26 13:25:51;;;;;;;2.22;1.27;;;;;;;28.09;41.19;99289.59;5089010;28;20408;-73
2022/04/26 13:28:17;;;;;;;5.43;1.58;;;;;;;27.27;41.32;99290.06;5088205;28;20476;-75
2022/04/26 13:30:43;;;;;;;2.88;1.30;;;;;;;27.58;39.66;99286.53;5089061;28;20119;-73
2022/04/26 13:33:10;;;;;;;3.05;1.20;;;;;;;28.94;35.69;99292.94;5089632;28;20054;-74
2022/04/26 13:35:37;;;;;;;1.48;1.17;;;;;;;29.65;34.07;99282.94;5088909;28;20063;-74
2022/04/26 13:38:11;;;;;;;2.22;1.10;;;;;;;31.17;31.19;99276.94;5086913;28;20423;-74
2022/04/26 13:40:37;;;;;;;2.22;1.10;;;;;;;31.98;29.07;99266.16;5088236;28;20452;-73
2022/04/26 13:43:05;;;;;;;1.85;1.27;;;;;;;32.77;28.39;99269.28;5086586;28;20399;-73
2022/04/26 13:45:32;;;;;;;3.85;1.45;;;;;;;33.18;26.37;99262.13;5089196;28;20035;-74
2022/04/26 13:47:59;;;;;;;4.32;1.42;;;;;;;33.59;25.15;99255.97;5089058;28;20859;-74
2022/04/26 13:50:25;;;;;;;2.10;1.27;;;;;;;33.75;25.17;99260.09;5089464;28;20421;-74
2022/04/26 13:52:50;;;;;;;2.83;1.10;;;;;;;34.29;24.25;99255.78;5088777;28;20115;-75
2022/04/26 13:55:17;;;;;;;2.33;1.70;;;;;;;34.55;25.60;99256.06;5088107;28;20028;-71
2022/04/26 13:57:44;;;;;;;2.83;1.42;;;;;;;35.70;24.14;99252.47;5089336;28;20047;-71
2022/04/26 14:00:11;;;;;;;4.45;1.70;;;;;;;34.28;25.30;99246.78;5088808;28;20040;-70
2022/04/26 14:02:41;;;;;;;2.72;1.40;;;;;;;32.66;25.55;99249.50;5089085;28;20047;-73
2022/04/26 14:05:07;;;;;;;1.75;1.27;;;;;;;34.16;25.59;99246.44;5088931;28;20085;-72
2022/04/26 14:07:32;;;;;;;2.80;1.30;;;;;;;35.47;23.04;99250.06;5088758;28;20438;-70
2022/04/26 14:09:58;;;;;;;2.40;1.30;;;;;;;34.70;21.99;99242.03;5088666;28;20039;-70
2022/04/26 14:12:23;;;;;;;1.75;1.40;;;;;;;35.27;21.60;99252.22;5088549;28;20028;-70
2022/04/26 14:23:01;;;;;;;3.15;1.40;;;;;;;37.34;20.37;99236.34;5088744;28;20032;-71
2022/04/26 14:25:27;;;;;;;3.58;1.92;;;;;;;37.57;19.90;99245.22;5089440;28;20040;-71
2022/04/26 14:27:52;;;;;;;2.55;1.73;;;;;;;37.95;19.36;99245.22;5088086;28;20062;-76
2022/04/26 14:30:18;;;;;;;2.10;1.50;;;;;;;37.64;19.21;99234.53;5089220;28;20439;-75
2022/04/26 14:32:45;;;;;;;1.95;1.73;;;;;;;38.10;19.17;99231.75;5088242;28;20472;-77
2022/04/26 14:35:12;;;;;;;1.55;1.33;;;;;;;38.53;18.67;99238.97;5089804;28;20076;-78
2022/04/26 14:37:37;;;;;;;1.95;1.50;;;;;;;38.70;18.65;99233.34;5092722;28;20115;-76
2022/04/26 14:40:04;;;;;;;3.67;1.88;;;;;;;38.29;18.67;99234.06;5092861;28;20024;-78
2022/04/26 14:42:30;;;;;;;5.00;1.90;;;;;;;38.04;18.95;99229.53;5093827;28;20028;-77
2022/04/26 14:44:57;;;;;;;3.17;2.00;;;;;;;37.67;19.23;99244.88;5093225;28;20038;-77
2022/04/26 14:47:26;;;;;;;2.92;1.80;;;;;;;36.31;20.27;99244.50;5093711;28;20380;-76
2022/04/26 14:49:53;;;;;;;2.20;1.55;;;;;;;33.97;22.50;99235.59;5093221;28;20051;-78
2022/04/26 14:52:21;;;;;;;3.00;1.58;;;;;;;32.10;24.19;99233.78;5093921;28;20380;-77
2022/04/26 14:54:47;;;;;;;3.63;2.28;;;;;;;30.37;27.42;99236.25;5093222;28;20059;-77
2022/04/26 14:57:17;;;;;;;3.67;1.90;;;;;;;28.48;30.15;99235.78;5093346;28;20024;-78
2022/04/26 14:59:47;;;;;;;5.60;1.95;;;;;;;27.19;33.09;99234.44;5093013;28;20039;-78
2022/04/26 15:02:17;;;;;;;3.42;1.83;;;;;;;26.27;35.11;99234.53;5093639;28;20383;-77
2022/04/26 15:04:44;;;;;;;3.17;1.77;;;;;;;25.16;36.98;99235.59;5092753;28;20122;-77
2022/04/26 15:07:10;;;;;;;3.10;1.83;;;;;;;24.69;39.39;99235.81;5093437;28;20514;-78
2022/04/26 15:09:44;;;;;;;3.40;2.13;;;;;;;24.24;41.21;99234.94;5093486;28;20032;-78
2022/04/26 15:17:48;;;;;;;4.55;2.25;;;;;;;22.82;45.69;99223.53;5092791;28;20391;-78
2022/04/26 15:20:15;;;;;;;3.78;2.15;;;;;;;22.59;47.63;99234.16;5092855;28;20032;-78
2022/04/26 15:22:41;;;;;;;4.05;2.22;;;;;;;22.42;48.45;99229.44;5092813;28;20081;-78
2022/04/26 15:25:09;;;;;;;3.50;1.83;;;;;;;22.14;47.76;99231.88;5093077;28;20556;-78
2022/04/26 15:27:38;;;;;;;3.65;2.30;;;;;;;22.01;48.26;99221.25;5092915;28;20399;-78
2022/04/26 15:30:06;;;;;;;4.47;2.15;;;;;;;21.89;48.97;99228.41;5088572;28;20028;-76
2022/04/26 15:32:32;;;;;;;3.70;2.28;;;;;;;21.62;50.52;99220.59;5092548;28;20024;-77
2022/04/26 15:34:57;;;;;;;4.32;3.03;;;;;;;21.55;51.26;99227.94;5091081;28;20036;-77
2022/04/26 15:37:25;;;;;;;3.70;2.10;;;;;;;21.42;52.03;99228.03;5093058;28;20101;-77
2022/04/26 15:39:52;;;;;;;5.10;2.38;;;;;;;21.32;51.77;99232.28;5092394;28;20056;-78
2022/04/26 15:42:18;;;;;;;5.47;2.53;;;;;;;21.18;52.72;99226.19;5092949;28;20024;-78
2022/04/26 15:44:44;;;;;;;6.57;2.75;;;;;;;21.12;53.52;99232.41;5092044;28;20041;-77